Seihou Maru — JM6496 — position and weather

sailwx.info

Track history (hours):
 
Tides and Currents Weather Stations Pressure Air Temp Water Temp Dewpoint Dewpoint Depression Visibility Wind Speed Wind Dir Waves Ship Positions

Seihou Maru

Last reported at 2017-Oct-18 16:29 UTC. Time now 2017-Oct-18 17:02 UTC.
Position N 35°30' E 139°60'.

Length 71 m; draft 4 m.

Type: Tanker. MMSI: 431400523.

Date/timePositionNaut miles runAvg speedWind from/ knotsBaromVisibWave heightAir tempDewpointWater temp
2017-Oct-18 16:29N 35°30' E 139°60'0 0.0
2017-Oct-18 15:47N 35°30' E 139°60'0 0.0
2017-Oct-18 15:26N 35°30' E 139°60'0 0.0
2017-Oct-18 14:59N 35°30' E 139°60'0 0.0
2017-Oct-18 13:20N 35°30' E 139°60'0 0.1
2017-Oct-18 12:53N 35°30' E 139°60'2 4.6
2017-Oct-18 12:30N 35°30' E 139°57'612.2
2017-Oct-18 12:00N 35°28' E 139°51'612.0
2017-Oct-18 11:31N 35°23' E 139°46'611.3
2017-Oct-18 11:01N 35°18' E 139°45'611.6
2017-Oct-18 10:30N 35°12' E 139°47'612.8
2017-Oct-18 10:00N 35°06' E 139°45'612.7
2017-Oct-18 09:30N 35°01' E 139°39'713.2
2017-Oct-18 08:59N 34°57' E 139°33'25 1.5
2017-Oct-17 16:24N 34°45' E 139°06'613.7
2017-Oct-17 15:57N 34°50' E 139°11'612.3
2017-Oct-17 15:28N 34°55' E 139°15'712.3
2017-Oct-17 14:54N 34°58' E 139°22'512.0
2017-Oct-17 14:30N 35°01' E 139°27'611.9
2017-Oct-17 14:00N 35°03' E 139°34'612.6
2017-Oct-17 13:30N 35°06' E 139°41'713.5
2017-Oct-17 13:00N 35°11' E 139°45'611.8
2017-Oct-17 12:30N 35°17' E 139°45'612.2
2017-Oct-17 12:00N 35°23' E 139°42'713.1
2017-Oct-17 11:30N 35°27' E 139°48'11 1.3
2017-Oct-17 02:55N 35°30' E 140°01'0 0.0
2017-Oct-16 03:31N 35°30' E 140°01'0 9.0
2017-Oct-16 03:30N 35°30' E 140°01'6 0.2
2017-Oct-14 09:25N 35°36' E 139°57'6 0.9
2017-Oct-14 02:17N 35°30' E 140°01'7 0.3
2017-Oct-13 04:48N 35°37' E 139°58'4 1.0
2017-Oct-13 01:17N 35°34' E 139°60'4 1.0
2017-Oct-12 21:39N 35°30' E 140°01'0 1.6
2017-Oct-12 21:28N 35°30' E 140°01'0 0.0
2017-Oct-12 20:49N 35°30' E 140°01'0 0.0
2017-Oct-12 20:19N 35°30' E 140°01'0 0.0
2017-Oct-12 19:25N 35°30' E 140°01'0 0.0
2017-Oct-12 13:49N 35°30' E 140°01'0 0.0
2017-Oct-12 09:10N 35°30' E 140°01'0 0.1
2017-Oct-12 08:49N 35°30' E 140°01'0 0.0
2017-Oct-12 08:28N 35°30' E 140°01'0 0.0
2017-Oct-12 07:56N 35°30' E 140°01'7 9.7
2017-Oct-12 07:13N 35°37' E 139°59'5 1.3
2017-Oct-12 03:08N 35°32' E 139°60'58 1.7
2017-Oct-10 16:05N 34°49' E 139°11'112.2
2017-Oct-10 16:00N 34°50' E 139°11'612.3
2017-Oct-10 15:29N 34°55' E 139°16'612.2
2017-Oct-10 14:59N 34°59' E 139°22'1212.3
2017-Oct-10 14:00N 35°04' E 139°35'612.1
2017-Oct-10 13:30N 35°07' E 139°42'612.5
2017-Oct-10 13:00N 35°12' E 139°46'612.2
2017-Oct-10 12:30N 35°18' E 139°44'711.8
2017-Oct-10 11:55N 35°25' E 139°44'15 1.7
2017-Oct-10 02:54N 35°30' E 140°02'712.3
2017-Oct-10 02:21N 35°37' E 139°59'8 0.3
2017-Oct-08 19:16N 35°29' E 139°55'3 9.5
2017-Oct-08 19:00N 35°29' E 139°52'713.3
2017-Oct-08 18:31N 35°24' E 139°46'612.5
2017-Oct-08 18:01N 35°18' E 139°45'612.4
2017-Oct-08 17:30N 35°12' E 139°47'612.3
2017-Oct-08 17:00N 35°06' E 139°46'612.5
2017-Oct-08 16:30N 34°60' E 139°44'  
Track history (hours):
 
Tides and Currents Weather Stations Pressure Air Temp Water Temp Dewpoint Dewpoint Depression Visibility Wind Speed Wind Dir Waves Ship Positions

Seihou Maru

Last reported at 2017-Oct-18 16:29 UTC. Time now 2017-Oct-18 17:02 UTC.
Position N 35°30' E 139°60'.

Length 71 m; draft 4 m.

Type: Tanker. MMSI: 431400523.

Date/timePositionNaut miles runAvg speedWind from/ knotsBaromVisibWave heightAir tempDewpointWater temp
2017-Oct-18 16:29N 35°30' E 139°60'0 0.0
2017-Oct-18 15:47N 35°30' E 139°60'0 0.0
2017-Oct-18 15:26N 35°30' E 139°60'0 0.0
2017-Oct-18 14:59N 35°30' E 139°60'0 0.0
2017-Oct-18 13:20N 35°30' E 139°60'0 0.1
2017-Oct-18 12:53N 35°30' E 139°60'2 4.6
2017-Oct-18 12:30N 35°30' E 139°57'612.2
2017-Oct-18 12:00N 35°28' E 139°51'612.0
2017-Oct-18 11:31N 35°23' E 139°46'611.3
2017-Oct-18 11:01N 35°18' E 139°45'611.6
2017-Oct-18 10:30N 35°12' E 139°47'612.8
2017-Oct-18 10:00N 35°06' E 139°45'612.7
2017-Oct-18 09:30N 35°01' E 139°39'713.2
2017-Oct-18 08:59N 34°57' E 139°33'25 1.5
2017-Oct-17 16:24N 34°45' E 139°06'613.7
2017-Oct-17 15:57N 34°50' E 139°11'612.3
2017-Oct-17 15:28N 34°55' E 139°15'712.3
2017-Oct-17 14:54N 34°58' E 139°22'512.0
2017-Oct-17 14:30N 35°01' E 139°27'611.9
2017-Oct-17 14:00N 35°03' E 139°34'612.6
2017-Oct-17 13:30N 35°06' E 139°41'713.5
2017-Oct-17 13:00N 35°11' E 139°45'611.8
2017-Oct-17 12:30N 35°17' E 139°45'612.2
2017-Oct-17 12:00N 35°23' E 139°42'713.1
2017-Oct-17 11:30N 35°27' E 139°48'11 1.3
2017-Oct-17 02:55N 35°30' E 140°01'0 0.0
2017-Oct-16 03:31N 35°30' E 140°01'0 9.0
2017-Oct-16 03:30N 35°30' E 140°01'6 0.2
2017-Oct-14 09:25N 35°36' E 139°57'6 0.9
2017-Oct-14 02:17N 35°30' E 140°01'7 0.3
2017-Oct-13 04:48N 35°37' E 139°58'4 1.0
2017-Oct-13 01:17N 35°34' E 139°60'4 1.0
2017-Oct-12 21:39N 35°30' E 140°01'0 1.6
2017-Oct-12 21:28N 35°30' E 140°01'0 0.0
2017-Oct-12 20:49N 35°30' E 140°01'0 0.0
2017-Oct-12 20:19N 35°30' E 140°01'0 0.0
2017-Oct-12 19:25N 35°30' E 140°01'0 0.0
2017-Oct-12 13:49N 35°30' E 140°01'0 0.0
2017-Oct-12 09:10N 35°30' E 140°01'0 0.1
2017-Oct-12 08:49N 35°30' E 140°01'0 0.0
2017-Oct-12 08:28N 35°30' E 140°01'0 0.0
2017-Oct-12 07:56N 35°30' E 140°01'7 9.7
2017-Oct-12 07:13N 35°37' E 139°59'5 1.3
2017-Oct-12 03:08N 35°32' E 139°60'58 1.7
2017-Oct-10 16:05N 34°49' E 139°11'112.2
2017-Oct-10 16:00N 34°50' E 139°11'612.3
2017-Oct-10 15:29N 34°55' E 139°16'612.2
2017-Oct-10 14:59N 34°59' E 139°22'1212.3
2017-Oct-10 14:00N 35°04' E 139°35'612.1
2017-Oct-10 13:30N 35°07' E 139°42'612.5
2017-Oct-10 13:00N 35°12' E 139°46'612.2
2017-Oct-10 12:30N 35°18' E 139°44'711.8
2017-Oct-10 11:55N 35°25' E 139°44'15 1.7
2017-Oct-10 02:54N 35°30' E 140°02'712.3
2017-Oct-10 02:21N 35°37' E 139°59'8 0.3
2017-Oct-08 19:16N 35°29' E 139°55'3 9.5
2017-Oct-08 19:00N 35°29' E 139°52'713.3
2017-Oct-08 18:31N 35°24' E 139°46'612.5
2017-Oct-08 18:01N 35°18' E 139°45'612.4
2017-Oct-08 17:30N 35°12' E 139°47'612.3
2017-Oct-08 17:00N 35°06' E 139°46'612.5
2017-Oct-08 16:30N 34°60' E 139°44'  

Dump ship's entire track history